Aviosuperficie Chiasiellis

IT-0405 · Friuli Venezia Giulia, 意大利

METAR的历史 IT-0405 · Aviosuperficie Chiasiellis

下面你可以看到过去几天的METARs。 选择年份以浏览从2007年开始的旧METAR。

2022年11月29日

时间 代码 天气 温度 能见度 天花板 METAR/SPECI
23:55
V
5 °C 10 km+ - 050° 050° 7 kt METAR LIPI 292255Z 05007KT CAVOK 05/M01 Q1017
23:55
V
5 °C 10 km+ - 050° 050° 7 kt METAR LIPI 292255Z 05007KT CAVOK 05/M01 Q1017
22:55
V
4 °C 10 km+ - 050° 050° 6 kt METAR LIPI 292155Z 05006KT CAVOK 04/M01 Q1017
21:55
V
5 °C 10 km+ - 040° 040° 5 kt METAR LIPI 292055Z 04005KT CAVOK 05/M01 Q1017
20:55
V
5 °C 10 km+ - 040° 040° 6 kt METAR LIPI 291955Z 04006KT CAVOK 05/M01 Q1017 RMK SCT SCT120 VIS MIN 9999 WIND THR06 08006KT WIND THR24 06007KT BLU
19:55
V
5 °C 10 km+ - 040° 040° 6 kt METAR LIPI 291855Z 04006KT CAVOK 05/M01 Q1017
18:55
V
6 °C 10 km+ - 040° 040° 7 kt METAR LIPI 291755Z 04007KT CAVOK 06/M01 Q1016
17:55
V
6 °C 10 km+ - 050° 050° 9 kt METAR LIPI 291655Z 05009KT 9999 FEW100 06/M01 Q1017
16:55
V
7 °C 10 km+ - 050° 050° 10 kt METAR LIPI 291555Z 05010KT 9999 SCT070 SCT110 07/M00 Q1016
15:55
V
7 °C 10 km+ - 060° 060° 8 kt METAR LIPI 291455Z 06008KT 9999 FEW050 SCT110 07/M00 Q1016
14:55
V
8 °C 10 km+ - 060° 060° 13 kt METAR LIPI 291355Z 06013KT 9999 FEW040 SCT090 08/00 Q1016 RMK SCT VIS MIN 9999 WIND THR06 09011KT WIND THR24 07011KT BLU
13:55
V
8 °C 10 km+ 8.000 ft 050° 050° 11 kt METAR LIPI 291255Z 05011KT 9999 FEW030 SCT050 BKN080 08/00 Q1016
12:55
V
8 °C 10 km+ 11.000 ft 050° 050° 9 kt METAR LIPI 291155Z 05009KT 9999 FEW040 SCT060 BKN110 08/01 Q1016
11:55
V
7 °C 10 km+ 7.000 ft 040° 040° 10 kt METAR LIPI 291055Z 04010KT 9999 FEW030 OVC070 07/01 Q1016
10:55
V
7 °C 10 km+ 9.000 ft 040° 040° 11 kt METAR LIPI 290955Z 04011KT 9999 FEW030 SCT050 BKN090 07/01 Q1017
09:55
V
6 °C 10 km+ 6.000 ft 040° 040° 6 kt METAR LIPI 290855Z 04006KT 9999 FEW027 OVC060 06/02 Q1016
08:55
V
5 °C 10 km+ 6.000 ft 030° 030° 5 kt METAR LIPI 290755Z 03005KT 9999 FEW030 BKN060 05/02 Q1016
07:55
V
5 °C 10 km+ 6.000 ft 010° 010° 3 kt METAR LIPI 290655Z 01003KT 9999 FEW025 BKN060 05/03 Q1016
06:55
V
5 °C 10 km+ 8.000 ft 350° 350° 5 kt METAR LIPI 290555Z 35005KT 9999 SCT030 BKN080 05/03 Q1016
05:55
V
5 °C 10 km+ 3.000 ft 350° 350° 5 kt METAR LIPI 290455Z 35005KT 9999 -DZ FEW020 BKN030 05/03 Q1017 RMK OVC VIS MIN 9999 WIND THR06 03006KT WIND THR24 01005KT BLU
04:55
V
5 °C 10 km+ 3.000 ft 010° 010° 5 kt METAR LIPI 290355Z 01005KT 9999 -DZ FEW020 BKN030 05/04 Q1016
03:55
V
5 °C 10 km+ 3.000 ft 350° 350° 4 kt METAR LIPI 290255Z 35004KT 9999 -DZ FEW020 BKN030 05/04 Q1016
02:55
V
5 °C 10 km+ 3.000 ft 010° 010° 4 kt METAR LIPI 290155Z 01004KT 9999 -DZ FEW020 BKN030 05/04 Q1017
01:55
V
5 °C 10 km+ 3.500 ft 360° 360° 5 kt METAR LIPI 290055Z 36005KT 9999 -DZ FEW025 BKN035 05/04 Q1017
00:55
V
5 °C 10 km+ - 010° 010° 5 kt METAR LIPI 282355Z 01005KT 9999 SCT040 SCT050 05/04 Q1017

2022年11月28日

时间 代码 天气 温度 能见度 天花板 METAR/SPECI
23:55
V
6 °C 10 km+ 5.000 ft 020° 020° 6 kt METAR LIPI 282255Z 02006KT 9999 SCT040 BKN050 06/05 Q1017
22:55
V
6 °C 10 km+ 5.000 ft 020° 020° 5 kt METAR LIPI 282155Z 02005KT 9999 SCT040 BKN050 06/04 Q1017
21:55
V
6 °C 10 km+ 5.000 ft 350° 350° 4 kt METAR LIPI 282055Z 35004KT 9999 SCT040 BKN050 06/03 Q1017
20:55
V
7 °C 10 km+ 5.000 ft 340° 340° 3 kt METAR LIPI 281955Z 34003KT 9999 SCT040 BKN050 07/04 Q1017
19:55
V
7 °C 10 km+ 6.000 ft 340° 340° 3 kt METAR LIPI 281855Z 34003KT 9999 SCT050 BKN060 07/03 Q1017
18:55
V
7 °C 10 km+ 6.000 ft 360° 360° 2 kt METAR LIPI 281755Z 36002KT 9999 SCT040 BKN060 07/03 Q1017 RMK OVC VIS MIN 9999 WIND THR06 03003KT WIND THR24 01003KT BLU
17:55
V
7 °C 10 km+ 6.000 ft 340° 340° 4 kt METAR LIPI 281655Z 34004KT 9999 SCT050 BKN060 07/03 Q1017 RMK OVC VIS MIN 9999 WIND THR06 03005KT WIND THR24 35003KT BLU
16:55
V
8 °C 10 km+ 7.000 ft 340° 340° 3 kt METAR LIPI 281555Z 34003KT 9999 SCT050 BKN070 08/03 Q1017
15:55
V
8 °C 10 km+ 8.000 ft 320° 320° 3 kt METAR LIPI 281455Z 32003KT 9999 SCT060 BKN080 08/03 Q1017
14:55
V
9 °C 10 km+ 8.000 ft 330° 330° 3 kt METAR LIPI 281355Z 33003KT 9999 SCT060 BKN080 09/03 Q1017
13:55
V
9 °C 10 km+ 8.000 ft 330° 330° 3 kt METAR LIPI 281255Z 33003KT 9999 SCT060 BKN080 09/02 Q1017 RMK OVC VIS MIN 9999 WIND THR06 36004KT WIND THR24 33004KT BLU
12:55
V
8 °C 10 km+ 10.000 ft 340° 340° 4 kt METAR LIPI 281155Z 34004KT 9999 SCT080 BKN100 08/01 Q1018
11:55
V
8 °C 10 km+ - 340° 340° 4 kt METAR LIPI 281055Z 34004KT 9999 SCT100 08/02 Q1018 RMK OVC SCT130 VIS MIN 9999 WIND THR06 02005KT WIND THR24 36005KT BLU
10:55
V
8 °C 10 km+ - 020° 020° 6 kt METAR LIPI 280955Z 02006KT 9999 FEW110 08/03 Q1019
09:55
V
7 °C 10 km+ - 350° 350° 4 kt METAR LIPI 280855Z 35004KT 9999 FEW110 07/03 Q1020
08:55
V
5 °C 10 km+ - 350° 350° 5 kt METAR LIPI 280755Z 35005KT CAVOK 05/02 Q1020
07:55
V
2 °C 10 km+ - 040° 040° 6 kt METAR LIPI 280655Z 04006KT CAVOK 02/00 Q1020
06:55
V
2 °C 10 km+ - 340° 340° 6 kt METAR LIPI 280555Z 34006KT CAVOK 02/M00 Q1020
05:55
V
1 °C 10 km+ - 340° 340° 7 kt METAR LIPI 280455Z 34007KT CAVOK 01/M01 Q1021
04:55
V
2 °C 10 km+ - 330° 330° 5 kt METAR LIPI 280355Z 33005KT CAVOK 02/M00 Q1021
03:55
V
2 °C 10 km+ - 330° 330° 5 kt METAR LIPI 280255Z 33005KT CAVOK 02/M00 Q1021 RMK FEW FEW200 VIS MIN 9999 WIND THR06 01005KT WIND THR24 35005KT BLU
02:55
V
2 °C 10 km+ - 330° 330° 5 kt METAR LIPI 280155Z 33005KT CAVOK 02/M00 Q1021
01:55
V
2 °C 10 km+ - 320° 320° 4 kt METAR LIPI 280055Z 32004KT CAVOK 02/M00 Q1022
00:55
V
2 °C 10 km+ - 330° 330° 4 kt METAR LIPI 272355Z 33004KT CAVOK 02/M00 Q1023

2022年11月27日

时间 代码 天气 温度 能见度 天花板 METAR/SPECI
23:55
V
2 °C 10 km+ - 340° 340° 6 kt METAR LIPI 272255Z 34006KT CAVOK 02/M00 Q1023
22:55
V
2 °C 10 km+ - 330° 330° 6 kt METAR LIPI 272155Z 33006KT CAVOK 02/00 Q1023
21:55
V
2 °C 10 km+ - 330° 330° 5 kt METAR LIPI 272055Z 33005KT CAVOK 02/01 Q1024
20:55
V
2 °C 10 km+ - 340° 340° 4 kt METAR LIPI 271955Z 34004KT CAVOK 02/01 Q1024
19:55
V
2 °C 10 km+ - 010° 010° 3 kt METAR LIPI 271855Z 01003KT CAVOK 02/01 Q1024 RMK FEW FEW200 VIS MIN 9999 WIND THR06 03004KT WIND THR24 05004KT BLU
18:55
V
4 °C 10 km+ - 020° 020° 3 kt METAR LIPI 271755Z 02003KT CAVOK 04/02 Q1024
17:55
V
5 °C 10 km+ - 330° 330° 2 kt METAR LIPI 271655Z 33002KT CAVOK 05/02 Q1025 RMK FEW FEW200 VIS MIN 9999 WIND THR06 02001KT WIND THR24 34002KT BLU
16:55
V
8 °C 10 km+ - Var 000° 0 kt METAR LIPI 271555Z 00000KT CAVOK 08/02 Q1025
15:55
V
12 °C 10 km+ - 010° 010° 1 kt METAR LIPI 271455Z 01001KT CAVOK 12/02 Q1025
14:55
V
13 °C 10 km+ - Var Var 1 kt METAR LIPI 271355Z VRB01KT CAVOK 13/04 Q1025
13:55
V
12 °C 10 km+ - 050° 050° 3 kt METAR LIPI 271255Z 05003KT CAVOK 12/02 Q1026
12:55
V
12 °C 10 km+ - 010° 010° 4 kt METAR LIPI 271155Z 01004KT CAVOK 12/03 Q1026
11:55
V
12 °C 10 km+ - 040° 040° 6 kt METAR LIPI 271055Z 04006KT CAVOK 12/04 Q1027
10:55
V
11 °C 10 km+ - 030° 030° 5 kt METAR LIPI 270955Z 03005KT CAVOK 11/03 Q1028

我们和第三方通过cookies跟踪您在我们网站上的互联网行为。如果你继续,我们认为你同意我们的饼干政策